Time;durP1;ratioP1;P1;durP2;ratioP2;P2;SDS_P1;SDS_P2;PMS_P1;PMS_P2;Temp;Humidity;BMP_temperature;BMP_pressure;BME280_temperature;BME280_humidity;BME280_pressure;Samples;Min_cycle;Max_cycle;Signal;HPM_P1;HPM_P2
2021/05/19 00:00:20;;;;;;;;;;;;;;;8.52;91.78;95859.13;1279410;23;19905;-60
2021/05/19 00:00:50;;;;;;;;;;;;;;;8.52;92.09;95851.13;1279355;23;20401;-60
2021/05/19 00:01:21;;;;;;;;;;;;;;;8.50;92.12;95855.13;1279469;23;19908;-61
2021/05/19 00:01:51;;;;;;;;;;;;;;;8.48;92.73;95851.91;1279146;23;19940;-61
2021/05/19 00:02:21;;;;;;;;;;;;;;;8.47;92.55;95852.97;1279346;23;20054;-60
2021/05/19 00:02:51;;;;;;;;;;;;;;;8.50;92.70;95852.47;1279428;23;19936;-61
2021/05/19 00:03:22;;;;;;;;;;;;;;;8.50;93.01;95849.81;1279339;23;19904;-61
2021/05/19 00:03:52;;;;;;;;;;;;;;;8.49;92.55;95856.16;1279454;23;19904;-61
2021/05/19 00:04:22;;;;;;;;;;;;;;;8.49;92.79;95848.19;1279485;23;19982;-61
2021/05/19 00:04:53;;;;;;;;;;;;;;;8.53;92.61;95849.25;1279320;23;19904;-61
2021/05/19 00:05:23;;;;;;;;;;;;;;;8.50;93.01;95849.81;1279476;23;19904;-60
2021/05/19 00:05:53;;;;;;;;;;;;;;;8.45;92.62;95847.13;1279396;23;19935;-61
2021/05/19 00:06:23;;;;;;;;;;;;;;;8.47;92.11;95852.97;1279133;23;20322;-60
2021/05/19 00:06:54;;;;;;;;;;;;;;;8.46;92.33;95848.72;1278792;23;19908;-61
2021/05/19 00:07:24;;;;;;;;;;;;;;;8.47;92.22;95851.09;1279171;23;19915;-61
2021/05/19 00:07:54;;;;;;;;;;;;;;;8.49;92.37;95848.19;1279488;23;19927;-60
2021/05/19 00:08:25;;;;;;;;;;;;;;;8.47;92.15;95851.09;1279358;23;19904;-61
2021/05/19 00:08:55;;;;;;;;;;;;;;;8.47;92.41;95844.97;1279350;23;19910;-61
2021/05/19 00:09:25;;;;;;;;;;;;;;;8.42;92.23;95847.63;1279424;23;20325;-61
2021/05/19 00:09:55;;;;;;;;;;;;;;;8.38;92.39;95847.34;1279399;23;19904;-61
2021/05/19 00:10:26;;;;;;;;;;;;;;;8.33;92.51;95847.28;1279366;23;19921;-61
2021/05/19 00:10:56;;;;;;;;;;;;;;;8.38;92.91;95851.84;1279368;23;19904;-61
2021/05/19 00:11:26;;;;;;;;;;;;;;;8.36;93.37;95841.47;1278884;23;19915;-61
2021/05/19 00:11:56;;;;;;;;;;;;;;;8.39;93.51;95842.81;1278892;23;20238;-61
2021/05/19 00:12:27;;;;;;;;;;;;;;;8.40;93.53;95839.91;1272947;23;19905;-61
2021/05/19 00:12:57;;;;;;;;;;;;;;;8.46;93.42;95849.50;1272829;23;19986;-61
2021/05/19 00:13:30;;;;;;;;;;;;;;;8.46;93.69;95846.06;1279063;23;19931;-61
2021/05/19 00:14:01;;;;;;;;;;;;;;;8.49;93.84;95845.50;1278993;23;20354;-61
2021/05/19 00:14:31;;;;;;;;;;;;;;;8.46;93.14;95843.38;1279336;23;19904;-61
2021/05/19 00:15:01;;;;;;;;;;;;;;;8.42;92.66;95852.94;1279310;23;19904;-61
2021/05/19 00:15:32;;;;;;;;;;;;;;;8.44;92.51;95848.16;1279512;23;19979;-61
2021/05/19 00:16:03;;;;;;;;;;;;;;;8.39;93.02;95848.13;1279375;23;19911;-61
2021/05/19 00:16:33;;;;;;;;;;;;;;;8.42;93.34;95847.63;1279306;23;19910;-61
2021/05/19 00:17:03;;;;;;;;;;;;;;;8.40;92.69;95849.75;1279279;23;20337;-61
2021/05/19 00:17:43;;;;;;;;;;;;;;;8.42;92.43;95852.94;1279472;23;19904;-61
2021/05/19 00:18:13;;;;;;;;;;;;;;;8.41;92.96;95846.03;1279329;23;19910;-61
2021/05/19 00:18:43;;;;;;;;;;;;;;;8.38;93.09;95847.34;1279332;23;19911;-61
2021/05/19 00:19:14;;;;;;;;;;;;;;;8.44;93.19;95846.28;1279266;23;19906;-61
2021/05/19 00:19:45;;;;;;;;;;;;;;;8.47;93.14;95852.97;1279449;23;19912;-61
2021/05/19 00:20:15;;;;;;;;;;;;;;;8.45;92.82;95849.78;1279307;23;20279;-61
2021/05/19 00:20:46;;;;;;;;;;;;;;;8.45;92.97;95852.44;1279538;23;19927;-60
2021/05/19 00:21:16;;;;;;;;;;;;;;;8.42;93.33;95845.75;1279369;23;19910;-60
2021/05/19 00:21:46;;;;;;;;;;;;;;;8.47;93.11;95850.31;1279306;23;19916;-60
2021/05/19 00:22:17;;;;;;;;;;;;;;;8.50;93.01;95849.81;1279397;23;20218;-60
2021/05/19 00:22:47;;;;;;;;;;;;;;;8.48;93.30;95849.25;1279528;23;20269;-60
2021/05/19 00:23:20;;;;;;;;;;;;;;;8.50;93.21;95847.13;1279507;23;19904;-60
2021/05/19 00:23:51;;;;;;;;;;;;;;;8.51;93.58;95846.06;1279483;23;20279;-60
2021/05/19 00:24:21;;;;;;;;;;;;;;;8.50;93.07;95855.13;1279194;23;19908;-61
2021/05/19 00:24:51;;;;;;;;;;;;;;;8.51;93.09;95852.19;1278957;23;19904;-61
2021/05/19 00:25:21;;;;;;;;;;;;;;;8.54;92.97;95848.19;1279015;23;19915;-60
2021/05/19 00:25:52;;;;;;;;;;;;;;;8.51;92.99;95849.53;1279106;23;19904;-60
2021/05/19 00:26:24;;;;;;;;;;;;;;;8.50;92.70;95844.47;1279011;23;19908;-61
2021/05/19 00:26:54;;;;;;;;;;;;;;;8.48;93.32;95843.91;1279169;23;19904;-61
2021/05/19 00:27:25;;;;;;;;;;;;;;;8.51;93.00;95844.22;1279355;23;19915;-61
2021/05/19 00:27:55;;;;;;;;;;;;;;;8.51;93.09;95841.53;1279408;23;19904;-60
2021/05/19 00:28:25;;;;;;;;;;;;;;;8.47;93.05;95839.66;1279429;23;19916;-60
2021/05/19 00:28:55;;;;;;;;;;;;;;;8.55;93.01;95844.50;1279387;23;19927;-60
2021/05/19 00:29:26;;;;;;;;;;;;;;;8.52;92.75;95845.00;1279346;23;20318;-61
2021/05/19 00:29:56;;;;;;;;;;;;;;;8.53;92.82;95843.94;1279061;23;19958;-60
2021/05/19 00:30:27;;;;;;;;;;;;;;;8.47;92.93;95839.66;1278875;23;20265;-61
2021/05/19 00:31:00;;;;;;;;;;;;;;;8.42;93.15;95837.78;1279206;23;19904;-60
2021/05/19 00:31:34;;;;;;;;;;;;;;;8.46;93.28;95846.06;1279037;23;19908;-61
2021/05/19 00:32:04;;;;;;;;;;;;;;;8.47;93.26;95843.13;1279211;23;19991;-60
2021/05/19 00:32:34;;;;;;;;;;;;;;;8.45;93.30;95841.78;1279263;23;19904;-61
2021/05/19 00:33:05;;;;;;;;;;;;;;;8.47;92.97;95848.44;1279189;23;19940;-61
2021/05/19 00:33:35;;;;;;;;;;;;;;;8.49;93.60;95842.84;1279442;23;19904;-60
2021/05/19 00:34:05;;;;;;;;;;;;;;;8.44;93.75;95845.50;1279317;23;19936;-61
2021/05/19 00:34:36;;;;;;;;;;;;;;;8.45;93.80;95834.59;1279309;23;19919;-60
2021/05/19 00:35:06;;;;;;;;;;;;;;;8.45;93.94;95837.25;1279272;23;20244;-61
2021/05/19 00:35:36;;;;;;;;;;;;;;;8.48;93.54;95842.06;1279428;23;19908;-61
2021/05/19 00:36:07;;;;;;;;;;;;;;;8.42;93.60;95835.09;1279417;23;19904;-61
2021/05/19 00:36:37;;;;;;;;;;;;;;;8.38;93.38;95835.88;1279205;23;19946;-60
2021/05/19 00:37:07;;;;;;;;;;;;;;;8.36;93.43;95845.97;1279023;23;19931;-61
2021/05/19 00:37:38;;;;;;;;;;;;;;;8.34;93.86;95833.72;1279388;23;19906;-61
2021/05/19 00:38:08;;;;;;;;;;;;;;;8.34;94.45;95840.88;1279295;23;19920;-60
2021/05/19 00:38:38;;;;;;;;;;;;;;;8.33;93.63;95839.28;1279421;23;19900;-61
2021/05/19 00:39:09;;;;;;;;;;;;;;;8.35;94.00;95842.50;1279224;23;19933;-61
2021/05/19 00:39:39;;;;;;;;;;;;;;;8.33;93.83;95839.28;1279060;23;19907;-60
2021/05/19 00:40:10;;;;;;;;;;;;;;;8.36;94.02;95840.66;1278945;23;19949;-61
2021/05/19 00:40:40;;;;;;;;;;;;;;;8.36;94.32;95845.97;1279029;23;19901;-61
2021/05/19 00:41:12;;;;;;;;;;;;;;;8.36;94.00;95837.97;1279006;23;19943;-60
2021/05/19 00:41:42;;;;;;;;;;;;;;;8.38;93.91;95847.34;1279446;23;19900;-60
2021/05/19 00:42:13;;;;;;;;;;;;;;;8.41;93.97;95836.19;1279237;23;20175;-61
2021/05/19 00:42:43;;;;;;;;;;;;;;;8.43;93.76;95841.22;1279361;23;19975;-61
2021/05/19 00:43:14;;;;;;;;;;;;;;;8.44;93.87;95837.50;1279352;23;19900;-61
2021/05/19 00:43:44;;;;;;;;;;;;;;;8.43;94.18;95844.69;1279451;23;19904;-61
2021/05/19 00:44:16;;;;;;;;;;;;;;;8.42;93.96;95842.31;1278856;23;19904;-61
2021/05/19 00:44:47;;;;;;;;;;;;;;;8.41;94.17;95840.69;1278967;23;19934;-61
2021/05/19 00:45:17;;;;;;;;;;;;;;;8.43;93.54;95842.03;1279024;23;19950;-61
2021/05/19 00:45:47;;;;;;;;;;;;;;;8.42;93.56;95840.44;1278919;23;20356;-61
2021/05/19 00:46:18;;;;;;;;;;;;;;;8.38;94.03;95842.00;1279337;23;19908;-61
2021/05/19 00:46:48;;;;;;;;;;;;;;;8.30;93.90;95842.50;1279364;23;19986;-61
2021/05/19 00:47:34;;;;;;;;;;;;;;;8.26;93.81;95839.53;1278952;23;19900;-61
2021/05/19 00:48:05;;;;;;;;;;;;;;;8.21;94.55;95833.38;1279332;23;19901;-60
2021/05/19 00:48:35;;;;;;;;;;;;;;;8.22;94.80;95835.78;1279369;23;19915;-60
2021/05/19 00:49:05;;;;;;;;;;;;;;;8.24;94.65;95841.66;1279249;23;20376;-61
2021/05/19 00:49:35;;;;;;;;;;;;;;;8.21;95.61;95842.16;1279388;23;19963;-60
2021/05/19 00:50:07;;;;;;;;;;;;;;;8.19;95.10;95843.47;1278943;23;19922;-60
2021/05/19 00:50:37;;;;;;;;;;;;;;;8.16;94.80;95841.34;1279013;23;19908;-60
2021/05/19 00:51:08;;;;;;;;;;;;;;;8.20;94.22;95845.09;1278715;23;19907;-61
2021/05/19 00:51:38;;;;;;;;;;;;;;;8.20;95.07;95842.44;1278906;23;20314;-60
2021/05/19 00:52:08;;;;;;;;;;;;;;;8.20;94.88;95848.56;1279387;23;19975;-60
2021/05/19 00:52:38;;;;;;;;;;;;;;;8.18;95.05;95844.53;1279194;23;20342;-60
2021/05/19 00:53:09;;;;;;;;;;;;;;;8.16;95.69;95847.47;1279444;23;19896;-60
2021/05/19 00:53:39;;;;;;;;;;;;;;;8.14;95.47;95846.94;1280207;23;20234;-61
2021/05/19 00:54:09;;;;;;;;;;;;;;;8.15;95.47;95845.88;1280308;23;19903;-60
2021/05/19 00:54:40;;;;;;;;;;;;;;;8.15;94.75;95853.06;1279758;23;19962;-60
2021/05/19 00:55:10;;;;;;;;;;;;;;;8.16;94.83;95850.13;1279927;23;19896;-60
2021/05/19 00:55:40;;;;;;;;;;;;;;;8.19;95.22;95846.13;1279273;23;19908;-61
2021/05/19 00:56:11;;;;;;;;;;;;;;;8.20;95.26;95845.91;1279290;23;20076;-60
2021/05/19 00:56:41;;;;;;;;;;;;;;;8.20;94.93;95853.88;1279800;23;20376;-60
2021/05/19 00:57:11;;;;;;;;;;;;;;;8.16;94.48;95852.78;1279335;23;19904;-61
2021/05/19 00:57:42;;;;;;;;;;;;;;;8.14;94.36;95844.28;1278779;23;20345;-61
2021/05/19 00:58:12;;;;;;;;;;;;;;;8.15;94.97;95845.88;1278946;23;19955;-60
2021/05/19 00:58:42;;;;;;;;;;;;;;;8.20;94.70;95855.75;1272775;23;19912;-60
2021/05/19 00:59:12;;;;;;;;;;;;;;;8.19;95.23;95854.13;1273144;23;19912;-60
2021/05/19 00:59:43;;;;;;;;;;;;;;;8.24;94.94;95852.31;1279630;23;19915;-60
2021/05/19 01:00:14;;;;;;;;;;;;;;;8.20;95.63;95851.22;1279508;23;19928;-60
2021/05/19 01:00:44;;;;;;;;;;;;;;;8.18;95.61;95850.66;1279076;23;19908;-60
2021/05/19 01:01:14;;;;;;;;;;;;;;;8.23;95.61;95856.00;1279011;23;19938;-60
2021/05/19 01:01:45;;;;;;;;;;;;;;;8.23;95.16;95850.69;1278884;23;19904;-61
2021/05/19 01:02:15;;;;;;;;;;;;;;;8.21;95.18;95852.81;1279477;23;19908;-60
2021/05/19 01:02:46;;;;;;;;;;;;;;;8.20;95.11;95845.91;1278993;23;20381;-60
2021/05/19 01:03:16;;;;;;;;;;;;;;;8.20;95.44;95853.09;1279280;23;19904;-61
2021/05/19 01:03:47;;;;;;;;;;;;;;;8.18;95.32;95845.34;1279324;23;19908;-60
2021/05/19 01:04:17;;;;;;;;;;;;;;;8.17;95.55;95857.03;1279036;23;19904;-61
2021/05/19 01:04:47;;;;;;;;;;;;;;;8.17;95.18;95850.91;1279113;23;19943;-61
2021/05/19 01:05:23;;;;;;;;;;;;;;;8.17;95.41;95849.06;1279191;23;19939;-61
2021/05/19 01:05:59;;;;;;;;;;;;;;;8.19;95.16;95846.13;1278820;23;20324;-60
2021/05/19 01:06:42;;;;;;;;;;;;;;;8.17;95.36;95853.59;1279119;23;20215;-60
2021/05/19 01:07:27;;;;;;;;;;;;;;;8.14;95.54;95848.75;1273639;23;19935;-60
2021/05/19 01:09:35;;;;;;;;;;;;;;;8.12;95.41;95851.69;1281899;23;19904;-60
2021/05/19 01:10:05;;;;;;;;;;;;;;;8.09;96.12;95860.22;1281551;23;19912;-60
2021/05/19 01:10:36;;;;;;;;;;;;;;;8.07;95.56;95855.13;1279459;23;19910;-60
2021/05/19 01:11:07;;;;;;;;;;;;;;;8.12;95.88;95846.38;1279307;23;19905;-60
2021/05/19 01:11:37;;;;;;;;;;;;;;;8.11;96.10;95854.63;1279427;23;19904;-60
2021/05/19 01:12:12;;;;;;;;;;;;;;;8.12;96.16;95849.03;1279315;23;19904;-60
2021/05/19 01:12:42;;;;;;;;;;;;;;;8.14;95.84;95862.06;1279371;23;19904;-60
2021/05/19 01:13:13;;;;;;;;;;;;;;;8.11;96.09;95850.09;1279379;23;19966;-60
2021/05/19 01:13:44;;;;;;;;;;;;;;;8.17;95.88;95856.25;1279117;23;19904;-60
2021/05/19 01:14:14;;;;;;;;;;;;;;;8.17;95.85;95850.91;1279382;23;19912;-61
2021/05/19 01:14:44;;;;;;;;;;;;;;;8.16;95.91;95854.66;1279267;23;19911;-60
2021/05/19 01:15:15;;;;;;;;;;;;;;;8.12;95.80;95858.88;1279364;23;20368;-60
2021/05/19 01:15:45;;;;;;;;;;;;;;;8.12;96.10;95862.34;1279303;23;20310;-60
2021/05/19 01:16:15;;;;;;;;;;;;;;;8.07;96.06;95855.13;1279295;23;19908;-61
2021/05/19 01:16:46;;;;;;;;;;;;;;;8.02;96.04;95855.09;1279062;23;20428;-61
2021/05/19 01:17:16;;;;;;;;;;;;;;;8.03;96.76;95853.22;1278920;23;19919;-60
2021/05/19 01:17:46;;;;;;;;;;;;;;;8.04;96.31;95852.19;1278986;23;20004;-60
2021/05/19 01:18:17;;;;;;;;;;;;;;;8.06;96.15;95852.72;1278872;23;19912;-61
2021/05/19 01:18:47;;;;;;;;;;;;;;;8.07;96.40;95851.66;1278785;23;20309;-61
2021/05/19 01:19:18;;;;;;;;;;;;;;;8.06;96.48;95860.72;1279185;23;20328;-61
2021/05/19 01:19:52;;;;;;;;;;;;;;;8.01;95.98;95858.81;1279237;23;19958;-60
2021/05/19 01:20:23;;;;;;;;;;;;;;;8.01;96.55;95853.50;1278659;23;19932;-61
2021/05/19 01:20:56;;;;;;;;;;;;;;;8.00;96.22;95856.41;1278967;23;19910;-60
2021/05/19 01:21:26;;;;;;;;;;;;;;;8.00;96.42;95856.41;1280948;23;19908;-60
2021/05/19 01:22:01;;;;;;;;;;;;;;;8.04;96.20;95852.19;1275502;23;19905;-61
2021/05/19 01:22:32;;;;;;;;;;;;;;;8.05;96.74;95856.44;1274653;23;19904;-61
2021/05/19 01:23:02;;;;;;;;;;;;;;;8.03;96.86;95850.56;1274254;23;19909;-62
2021/05/19 01:23:33;;;;;;;;;;;;;;;8.02;97.19;95860.41;1273253;23;19979;-61
2021/05/19 01:24:05;;;;;;;;;;;;;;;7.97;97.27;95857.72;1272778;23;19971;-61
2021/05/19 01:24:36;;;;;;;;;;;;;;;7.98;97.37;95855.84;1279486;23;19915;-61
2021/05/19 01:25:07;;;;;;;;;;;;;;;8.00;97.17;95851.91;1279706;23;19927;-61
2021/05/19 01:25:37;;;;;;;;;;;;;;;7.98;96.87;95851.34;1279122;23;20314;-61
2021/05/19 01:26:08;;;;;;;;;;;;;;;7.95;96.84;95848.41;1279194;23;19908;-61
2021/05/19 01:26:38;;;;;;;;;;;;;;;7.97;96.93;95852.41;1279042;23;19908;-62
2021/05/19 01:27:08;;;;;;;;;;;;;;;8.02;97.10;95852.44;1279252;23;19915;-64
2021/05/19 01:27:39;;;;;;;;;;;;;;;8.01;97.08;95848.16;1279844;23;19930;-61
2021/05/19 01:28:09;;;;;;;;;;;;;;;8.01;97.18;95856.16;1281378;23;19931;-60
2021/05/19 01:28:40;;;;;;;;;;;;;;;7.98;96.82;95853.19;1281443;23;19904;-64
2021/05/19 01:29:10;;;;;;;;;;;;;;;7.97;97.23;95852.41;1281379;23;19908;-60
2021/05/19 01:29:40;;;;;;;;;;;;;;;7.98;96.56;95847.88;1281953;23;19904;-61
2021/05/19 01:30:11;;;;;;;;;;;;;;;7.98;96.70;95856.66;1282187;23;19904;-63
2021/05/19 01:30:41;;;;;;;;;;;;;;;8.01;97.79;95853.50;1280285;23;19958;-60
2021/05/19 01:31:12;;;;;;;;;;;;;;;8.04;97.20;95849.53;1279765;23;20332;-60
2021/05/19 01:31:44;;;;;;;;;;;;;;;8.03;97.20;95846.03;1279324;23;19939;-61
2021/05/19 01:32:15;;;;;;;;;;;;;;;8.02;97.27;95854.28;1279919;23;19951;-60
2021/05/19 01:32:45;;;;;;;;;;;;;;;7.99;97.54;95852.97;1281322;23;19931;-62
2021/05/19 01:33:16;;;;;;;;;;;;;;;8.01;96.90;95850.03;1282288;23;20349;-60
2021/05/19 01:33:49;;;;;;;;;;;;;;;8.03;96.99;95848.69;1281632;23;19904;-65
2021/05/19 01:34:19;;;;;;;;;;;;;;;8.03;97.03;95843.38;1280986;23;19912;-60
2021/05/19 01:34:49;;;;;;;;;;;;;;;8.07;96.58;95849.78;1279271;23;19904;-60
2021/05/19 01:35:19;;;;;;;;;;;;;;;8.05;96.67;95853.78;1279766;23;19914;-60
2021/05/19 01:35:50;;;;;;;;;;;;;;;8.07;96.75;95859.66;1281639;23;19928;-60
2021/05/19 01:36:20;;;;;;;;;;;;;;;8.08;96.46;95847.94;1281679;23;19908;-60
2021/05/19 01:36:50;;;;;;;;;;;;;;;8.13;96.59;95849.81;1281289;23;19904;-60
2021/05/19 01:37:21;;;;;;;;;;;;;;;8.13;96.95;95855.94;1281476;23;19904;-61
2021/05/19 01:37:51;;;;;;;;;;;;;;;8.08;96.72;95854.06;1280792;23;19900;-61
2021/05/19 01:38:21;;;;;;;;;;;;;;;8.11;96.58;95858.06;1280672;23;19962;-60
2021/05/19 01:38:52;;;;;;;;;;;;;;;8.11;96.76;95858.06;1280386;23;19911;-61
2021/05/19 01:39:22;;;;;;;;;;;;;;;8.11;97.01;95860.75;1280604;23;19904;-61
2021/05/19 01:39:52;;;;;;;;;;;;;;;8.10;96.19;95858.34;1279885;23;20277;-61
2021/05/19 01:40:23;;;;;;;;;;;;;;;8.04;96.61;95853.00;1274128;23;19904;-60
2021/05/19 01:40:53;;;;;;;;;;;;;;;8.04;96.31;95853.00;1273422;23;19927;-60
2021/05/19 01:41:23;;;;;;;;;;;;;;;8.02;96.56;95856.94;1273537;23;19905;-60
2021/05/19 01:41:53;;;;;;;;;;;;;;;7.99;96.71;95852.97;1279519;23;19904;-61
2021/05/19 01:42:24;;;;;;;;;;;;;;;8.02;96.61;95856.94;1279764;23;19904;-60
2021/05/19 01:42:54;;;;;;;;;;;;;;;8.02;97.06;95846.31;1279110;23;19954;-61
2021/05/19 01:43:28;;;;;;;;;;;;;;;8.00;97.17;95856.41;1278975;23;19908;-61
2021/05/19 01:43:58;;;;;;;;;;;;;;;7.98;97.35;95855.84;1278935;23;19983;-60
2021/05/19 01:44:28;;;;;;;;;;;;;;;7.98;97.36;95854.00;1279402;23;19911;-60
2021/05/19 01:44:59;;;;;;;;;;;;;;;7.99;97.17;95854.81;1279834;23;19904;-61
2021/05/19 01:45:29;;;;;;;;;;;;;;;8.00;96.95;95857.22;1280236;23;19904;-60
2021/05/19 01:46:00;;;;;;;;;;;;;;;7.97;97.62;95860.38;1280079;23;19904;-61
2021/05/19 01:46:30;;;;;;;;;;;;;;;7.96;97.46;95852.66;1280504;23;19904;-60
2021/05/19 01:47:02;;;;;;;;;;;;;;;7.96;97.14;95855.31;1280360;23;20282;-60
2021/05/19 01:47:47;;;;;;;;;;;;;;;8.02;97.48;95860.41;1279186;23;19904;-60
2021/05/19 01:48:17;;;;;;;;;;;;;;;8.02;97.20;95860.41;1279578;23;19931;-60
2021/05/19 01:48:51;;;;;;;;;;;;;;;7.99;97.48;95866.28;1279696;23;19943;-60
2021/05/19 01:49:25;;;;;;;;;;;;;;;7.97;97.48;95863.03;1279145;23;19904;-60
2021/05/19 01:49:55;;;;;;;;;;;;;;;7.99;96.79;95860.94;1279305;23;19904;-61
2021/05/19 01:50:27;;;;;;;;;;;;;;;8.01;97.13;95864.13;1279039;23;20230;-60
2021/05/19 01:50:57;;;;;;;;;;;;;;;7.99;97.41;95855.63;1278778;23;20179;-61
2021/05/19 01:51:28;;;;;;;;;;;;;;;8.01;97.48;95863.34;1278957;23;19951;-60
2021/05/19 01:51:59;;;;;;;;;;;;;;;8.03;97.16;95861.22;1279327;23;19908;-61
2021/05/19 01:52:29;;;;;;;;;;;;;;;7.98;97.44;95859.31;1279060;23;19920;-61
2021/05/19 01:53:00;;;;;;;;;;;;;;;7.97;97.81;95857.72;1278984;23;20408;-61
2021/05/19 01:53:31;;;;;;;;;;;;;;;8.02;97.61;95865.72;1278913;23;19939;-61
2021/05/19 01:54:02;;;;;;;;;;;;;;;8.00;97.74;95854.56;1280258;23;19904;-61
2021/05/19 01:54:32;;;;;;;;;;;;;;;7.98;97.72;95859.31;1281367;23;19904;-61
2021/05/19 01:55:04;;;;;;;;;;;;;;;7.95;97.61;95857.19;1275331;23;19912;-61
2021/05/19 01:55:34;;;;;;;;;;;;;;;7.99;97.52;95860.94;1275186;23;19939;-61
2021/05/19 01:56:04;;;;;;;;;;;;;;;8.01;97.54;95855.34;1275105;23;19912;-61
2021/05/19 01:56:35;;;;;;;;;;;;;;;7.97;97.82;95857.72;1275349;23;19942;-61
2021/05/19 01:57:06;;;;;;;;;;;;;;;8.00;98.49;95854.56;1281640;23;19944;-60
2021/05/19 01:57:37;;;;;;;;;;;;;;;7.97;98.41;95852.41;1274826;23;19951;-61
2021/05/19 01:58:07;;;;;;;;;;;;;;;8.02;98.13;95862.28;1274927;23;20016;-61
2021/05/19 01:58:37;;;;;;;;;;;;;;;7.99;97.71;95860.94;1275032;23;19900;-61
2021/05/19 01:59:08;;;;;;;;;;;;;;;7.98;97.96;95864.63;1274465;23;20327;-61
2021/05/19 01:59:38;;;;;;;;;;;;;;;7.97;97.44;95860.38;1281242;23;19900;-61
2021/05/19 02:00:09;;;;;;;;;;;;;;;8.01;97.32;95863.34;1280422;23;19926;-61
2021/05/19 02:00:39;;;;;;;;;;;;;;;7.99;97.82;95855.63;1281001;23;19900;-61
2021/05/19 02:01:09;;;;;;;;;;;;;;;7.99;97.82;95854.81;1281390;23;19911;-61
2021/05/19 02:01:41;;;;;;;;;;;;;;;7.94;97.87;95857.44;1275175;23;19901;-61
2021/05/19 02:02:12;;;;;;;;;;;;;;;7.95;98.32;95865.16;1280812;23;19924;-61
2021/05/19 02:02:42;;;;;;;;;;;;;;;7.93;97.60;95863.81;1281307;23;19900;-61
2021/05/19 02:03:12;;;;;;;;;;;;;;;7.97;97.88;95867.56;1281226;23;19951;-61
2021/05/19 02:03:42;;;;;;;;;;;;;;;7.96;98.20;95865.97;1281300;23;19974;-61
2021/05/19 02:04:15;;;;;;;;;;;;;;;7.95;98.42;95859.84;1280952;23;19958;-61
2021/05/19 02:04:46;;;;;;;;;;;;;;;7.96;98.62;95857.97;1281525;23;19896;-61
2021/05/19 02:05:16;;;;;;;;;;;;;;;7.95;98.49;95862.50;1281526;23;19927;-60
2021/05/19 02:05:46;;;;;;;;;;;;;;;7.98;98.44;95856.66;1281132;23;19897;-61
2021/05/19 02:06:17;;;;;;;;;;;;;;;7.98;98.28;95861.97;1281300;23;19919;-61
2021/05/19 02:06:48;;;;;;;;;;;;;;;7.98;98.12;95866.50;1280878;23;19900;-61
2021/05/19 02:07:18;;;;;;;;;;;;;;;8.01;97.89;95866.00;1281406;23;19914;-61
2021/05/19 02:07:48;;;;;;;;;;;;;;;7.98;98.53;95861.97;1281667;23;19897;-60
2021/05/19 02:08:18;;;;;;;;;;;;;;;8.00;98.12;95857.22;1284065;23;19909;-61
2021/05/19 02:08:49;;;;;;;;;;;;;;;7.99;98.87;95862.81;1283529;23;19884;-66
2021/05/19 02:09:19;;;;;;;;;;;;;;;7.99;98.96;95863.59;1281922;23;19908;-61
2021/05/19 02:09:49;;;;;;;;;;;;;;;7.98;98.53;95864.63;1281232;23;20364;-61
2021/05/19 02:10:20;;;;;;;;;;;;;;;7.94;99.25;95862.78;1274711;23;20246;-65
2021/05/19 02:10:50;;;;;;;;;;;;;;;7.97;98.94;95863.03;1274542;23;19901;-62
2021/05/19 02:11:20;;;;;;;;;;;;;;;7.98;99.01;95863.84;1275126;23;19939;-61
2021/05/19 02:11:51;;;;;;;;;;;;;;;8.01;98.61;95858.81;1281341;23;20301;-63
2021/05/19 02:12:21;;;;;;;;;;;;;;;8.04;98.53;95860.19;1287410;23;19908;-61
2021/05/19 02:12:52;;;;;;;;;;;;;;;8.02;98.89;95862.28;1281216;23;19901;-66
2021/05/19 02:13:23;;;;;;;;;;;;;;;7.99;98.72;95863.59;1281230;23;19935;-63
2021/05/19 02:13:53;;;;;;;;;;;;;;;7.99;99.01;95868.13;1281522;23;19908;-65
2021/05/19 02:14:23;;;;;;;;;;;;;;;7.96;99.16;95861.44;1280985;23;19907;-61
2021/05/19 02:14:53;;;;;;;;;;;;;;;7.93;99.32;95867.25;1281475;23;19927;-66
2021/05/19 02:15:24;;;;;;;;;;;;;;;7.91;99.49;95872.06;1281308;23;19912;-60
2021/05/19 02:15:54;;;;;;;;;;;;;;;7.90;99.45;95867.00;1281397;23;19900;-61
2021/05/19 02:16:24;;;;;;;;;;;;;;;7.84;99.50;95862.69;1281528;23;19908;-61
2021/05/19 02:16:54;;;;;;;;;;;;;;;7.81;99.51;95864.78;1281503;23;20302;-64
2021/05/19 02:17:25;;;;;;;;;;;;;;;7.81;99.78;95862.13;1281556;23;19959;-62
2021/05/19 02:17:56;;;;;;;;;;;;;;;7.85;100.00;95859.78;1281564;23;19944;-61
2021/05/19 02:18:26;;;;;;;;;;;;;;;7.87;100.00;95875.47;1281291;23;19904;-60
2021/05/19 02:18:56;;;;;;;;;;;;;;;7.86;100.00;95868.56;1281904;23;19927;-61
2021/05/19 02:19:27;;;;;;;;;;;;;;;7.86;100.00;95872.00;1281584;23;19923;-62
2021/05/19 02:20:05;;;;;;;;;;;;;;;7.87;100.00;95868.28;1281493;23;19901;-62
2021/05/19 02:20:36;;;;;;;;;;;;;;;7.83;100.00;95869.88;1281078;23;19900;-63
2021/05/19 02:21:06;;;;;;;;;;;;;;;7.81;100.00;95864.78;1281526;23;19900;-62
2021/05/19 02:21:43;;;;;;;;;;;;;;;7.81;100.00;95869.31;1281815;23;19912;-61
2021/05/19 02:22:13;;;;;;;;;;;;;;;7.80;100.00;95868.53;1281420;23;19900;-61
2021/05/19 02:22:44;;;;;;;;;;;;;;;7.80;100.00;95878.38;1281575;23;19904;-61
2021/05/19 02:23:14;;;;;;;;;;;;;;;7.78;100.00;95867.97;1281849;23;19904;-67
2021/05/19 02:23:44;;;;;;;;;;;;;;;7.78;100.00;95870.66;1281232;23;19904;-61
2021/05/19 02:24:14;;;;;;;;;;;;;;;7.78;100.00;95875.16;1281144;23;19904;-61
2021/05/19 02:24:45;;;;;;;;;;;;;;;7.76;100.00;95871.94;1281608;23;19904;-64
2021/05/19 02:25:15;;;;;;;;;;;;;;;7.75;100.00;95873.81;1281287;23;19896;-62
2021/05/19 02:25:46;;;;;;;;;;;;;;;7.78;100.00;95875.16;1281226;23;20306;-64
2021/05/19 02:26:16;;;;;;;;;;;;;;;7.78;100.00;95881.28;1281456;23;19901;-62
2021/05/19 02:26:46;;;;;;;;;;;;;;;7.84;100.00;95873.34;1281444;23;20289;-64
2021/05/19 02:27:16;;;;;;;;;;;;;;;7.81;100.00;95880.75;1279587;23;19962;-61
2021/05/19 02:27:47;;;;;;;;;;;;;;;7.82;100.00;95876.25;1279077;23;19948;-61
2021/05/19 02:28:17;;;;;;;;;;;;;;;7.81;100.00;95877.31;1279180;23;20199;-61
2021/05/19 02:28:48;;;;;;;;;;;;;;;7.79;100.00;95874.09;1279150;23;19904;-61
2021/05/19 02:29:18;;;;;;;;;;;;;;;7.77;100.00;95874.34;1279013;23;19907;-60
2021/05/19 02:29:52;;;;;;;;;;;;;;;7.75;100.00;95875.66;1278635;23;19958;-60
2021/05/19 02:30:22;;;;;;;;;;;;;;;7.74;100.00;95874.88;1278745;23;19900;-60
2021/05/19 02:30:53;;;;;;;;;;;;;;;7.73;100.00;95873.25;1278765;23;20219;-61
2021/05/19 02:31:23;;;;;;;;;;;;;;;7.72;100.00;95873.50;1278806;23;19931;-61
2021/05/19 02:31:53;;;;;;;;;;;;;;;7.72;100.00;95879.63;1279144;23;19905;-61
2021/05/19 02:32:26;;;;;;;;;;;;;;;7.71;100.00;95870.03;1279073;23;20409;-60
2021/05/19 02:32:56;;;;;;;;;;;;;;;7.72;100.00;95876.97;1278985;23;19910;-60
2021/05/19 02:33:26;;;;;;;;;;;;;;;7.71;100.00;95879.88;1279039;23;19912;-61
2021/05/19 02:33:57;;;;;;;;;;;;;;;7.71;100.00;95878.03;1278936;23;20373;-60
2021/05/19 02:34:27;;;;;;;;;;;;;;;7.74;100.00;95874.06;1279055;23;19926;-61
2021/05/19 02:34:57;;;;;;;;;;;;;;;7.72;100.00;95870.84;1279134;23;19931;-61
2021/05/19 02:35:27;;;;;;;;;;;;;;;7.70;100.00;95873.75;1278920;23;20230;-61
2021/05/19 02:35:58;;;;;;;;;;;;;;;7.73;100.00;95869.81;1279118;23;19904;-61
2021/05/19 02:36:28;;;;;;;;;;;;;;;7.72;100.00;95876.97;1279078;23;19923;-61
2021/05/19 02:36:58;;;;;;;;;;;;;;;7.73;100.00;95883.09;1279117;23;19928;-61
2021/05/19 02:37:28;;;;;;;;;;;;;;;7.77;100.00;95878.84;1278909;23;20249;-61
2021/05/19 02:37:59;;;;;;;;;;;;;;;7.76;100.00;95869.28;1278878;23;19943;-61
2021/05/19 02:38:30;;;;;;;;;;;;;;;7.78;100.00;95873.31;1278995;23;19904;-60
2021/05/19 02:39:01;;;;;;;;;;;;;;;7.79;100.00;95874.09;1279033;23;19904;-60
2021/05/19 02:39:31;;;;;;;;;;;;;;;7.76;100.00;95872.75;1278979;23;19904;-60
2021/05/19 02:40:02;;;;;;;;;;;;;;;7.75;100.00;95875.66;1279071;23;19904;-61
2021/05/19 02:40:32;;;;;;;;;;;;;;;7.78;100.00;95878.63;1278583;23;19919;-61
2021/05/19 02:41:03;;;;;;;;;;;;;;;7.74;100.00;95880.19;1278785;23;20274;-61
2021/05/19 02:41:33;;;;;;;;;;;;;;;7.73;100.00;95877.78;1278677;23;20318;-61
2021/05/19 02:42:03;;;;;;;;;;;;;;;7.69;100.00;95871.38;1278725;23;19905;-61
2021/05/19 02:42:34;;;;;;;;;;;;;;;7.68;100.00;95878.53;1278931;23;19927;-60
2021/05/19 02:43:04;;;;;;;;;;;;;;;7.69;100.00;95876.69;1279029;23;19959;-61
2021/05/19 02:43:34;;;;;;;;;;;;;;;7.73;100.00;95873.25;1278961;23;19995;-61
2021/05/19 02:44:05;;;;;;;;;;;;;;;7.74;100.00;95869.53;1279065;23;19904;-61